Time;durP1;ratioP1;P1;durP2;ratioP2;P2;SDS_P1;SDS_P2;PMS_P1;PMS_P2;Temp;Humidity;BMP_temperature;BMP_pressure;BME280_temperature;BME280_humidity;BME280_pressure;Samples;Min_cycle;Max_cycle;Signal;HPM_P1;HPM_P2
2022/07/07 00:00:07;;;;;;;6.25;3.75;;;16.40;99.90;;;;;;4997712;28;20442;-74
2022/07/07 00:02:33;;;;;;;5.55;3.63;;;16.40;99.90;;;;;;5014466;28;20089;-74
2022/07/07 00:04:59;;;;;;;4.03;2.90;;;16.40;99.90;;;;;;5014392;28;20441;-74
2022/07/07 00:07:24;;;;;;;6.82;3.15;;;16.40;99.90;;;;;;5014416;28;20042;-74
2022/07/07 00:09:51;;;;;;;4.40;2.88;;;16.40;99.90;;;;;;5014627;28;20042;-74
2022/07/07 00:15:58;;;;;;;4.03;3.10;;;16.30;99.90;;;;;;5015728;28;20068;-74
2022/07/07 00:18:24;;;;;;;7.10;3.63;;;16.40;99.90;;;;;;4997846;28;20045;-74
2022/07/07 00:20:49;;;;;;;5.75;3.00;;;16.40;99.90;;;;;;5014168;28;20071;-74
2022/07/07 00:23:15;;;;;;;4.40;3.00;;;16.40;99.90;;;;;;4998075;28;20042;-74
2022/07/07 00:25:41;;;;;;;6.60;3.33;;;16.40;99.90;;;;;;5014038;28;20042;-74
2022/07/07 00:28:06;;;;;;;5.93;3.30;;;16.40;99.90;;;;;;5014151;28;20104;-74
2022/07/07 00:30:32;;;;;;;6.50;3.30;;;16.40;99.90;;;;;;4997949;28;20050;-74
2022/07/07 00:32:57;;;;;;;8.63;3.03;;;16.40;99.90;;;;;;5013894;28;20042;-74
2022/07/07 00:35:23;;;;;;;5.85;2.92;;;16.40;99.90;;;;;;5013917;28;20042;-74
2022/07/07 00:37:49;;;;;;;4.55;2.80;;;16.40;99.90;;;;;;4997363;28;20520;-74
2022/07/07 00:40:14;;;;;;;4.32;2.28;;;16.30;99.90;;;;;;5014097;28;20050;-74
2022/07/07 00:42:40;;;;;;;4.22;2.55;;;16.30;99.90;;;;;;5013905;28;20145;-74
2022/07/07 00:45:06;;;;;;;5.82;2.92;;;16.30;99.90;;;;;;5013691;28;20040;-73
2022/07/07 00:47:32;;;;;;;6.63;3.33;;;16.30;99.90;;;;;;4997555;28;20489;-74
2022/07/07 00:49:59;;;;;;;3.78;2.40;;;16.30;99.90;;;;;;5013827;28;20428;-73
2022/07/07 00:52:25;;;;;;;3.97;2.75;;;16.30;99.90;;;;;;4997263;28;20088;-74
2022/07/07 00:55:00;;;;;;;3.92;2.67;;;16.20;99.90;;;;;;5013522;28;20038;-74
2022/07/07 00:57:26;;;;;;;5.18;2.83;;;16.20;99.90;;;;;;5013356;28;20049;-74
2022/07/07 00:59:57;;;;;;;4.85;2.67;;;16.30;99.90;;;;;;5013424;28;20034;-74
2022/07/07 01:02:23;;;;;;;4.00;2.72;;;16.30;99.90;;;;;;5013665;28;20619;-74
2022/07/07 01:04:49;;;;;;;6.13;2.33;;;16.20;99.90;;;;;;4996910;28;20124;-74
2022/07/07 01:07:15;;;;;;;5.10;2.75;;;16.20;99.90;;;;;;5013534;28;20053;-74
2022/07/07 01:09:42;;;;;;;4.47;2.58;;;16.20;99.90;;;;;;4996509;28;20046;-74
2022/07/07 01:12:08;;;;;;;6.05;2.42;;;16.20;99.90;;;;;;5013011;28;20151;-74
2022/07/07 01:14:34;;;;;;;4.47;2.42;;;16.20;99.90;;;;;;4996795;28;20080;-74
2022/07/07 01:16:59;;;;;;;3.45;2.30;;;16.20;99.90;;;;;;5013006;28;20132;-74
2022/07/07 01:19:25;;;;;;;4.03;2.45;;;16.20;99.90;;;;;;5013332;28;20049;-74
2022/07/07 01:21:56;;;;;;;4.00;2.50;;;16.20;99.90;;;;;;5012973;28;20041;-74
2022/07/07 01:24:24;;;;;;;3.15;2.33;;;16.20;99.90;;;;;;5013267;28;20184;-73
2022/07/07 01:26:50;;;;;;;4.03;2.60;;;16.20;99.90;;;;;;5012833;28;20042;-74
2022/07/07 01:29:16;;;;;;;3.65;2.55;;;16.10;99.90;;;;;;5012838;28;20057;-74
2022/07/07 01:31:41;;;;;;;4.25;2.55;;;16.10;99.90;;;;;;5012842;28;20128;-74
2022/07/07 01:34:07;;;;;;;4.70;2.35;;;16.10;99.90;;;;;;5012751;28;20042;-74
2022/07/07 01:36:33;;;;;;;4.80;2.58;;;16.10;99.90;;;;;;4996300;28;20045;-74
2022/07/07 01:38:59;;;;;;;3.08;2.05;;;16.10;99.90;;;;;;5012664;28;20125;-73
2022/07/07 01:41:25;;;;;;;6.93;2.22;;;16.10;99.90;;;;;;4996220;28;20044;-73
2022/07/07 01:43:50;;;;;;;2.08;1.45;;;16.00;99.90;;;;;;4996289;28;20034;-73
2022/07/07 01:46:16;;;;;;;3.08;1.70;;;16.00;99.90;;;;;;5012789;28;20433;-74
2022/07/07 01:48:42;;;;;;;3.15;1.50;;;16.00;99.90;;;;;;5012473;28;20045;-74
2022/07/07 01:51:07;;;;;;;1.80;1.13;;;16.00;99.90;;;;;;5012769;28;20132;-73
2022/07/07 01:53:33;;;;;;;2.78;1.45;;;16.00;99.90;;;;;;4996067;28;20041;-73
2022/07/07 01:56:03;;;;;;;4.60;1.10;;;16.00;99.90;;;;;;5012380;28;20124;-73
2022/07/07 01:58:30;;;;;;;2.33;1.48;;;15.90;99.90;;;;;;4996269;28;20103;-73
2022/07/07 02:00:56;;;;;;;3.78;1.65;;;15.90;99.90;;;;;;5012337;28;20103;-73
2022/07/07 02:03:21;;;;;;;1.67;1.20;;;16.20;99.90;;;;;;5012322;28;20503;-73
2022/07/07 02:05:47;;;;;;;4.28;1.33;;;16.00;99.90;;;;;;5012239;28;20057;-73
2022/07/07 02:08:13;;;;;;;3.03;1.15;;;15.90;99.90;;;;;;4996062;28;20391;-73
2022/07/07 02:13:22;;;;;;;2.53;0.90;;;15.90;99.90;;;;;;5001482;28;20132;-74
2022/07/07 02:15:48;;;;;;;2.75;1.15;;;15.80;99.90;;;;;;4999097;28;20132;-74
2022/07/07 02:18:13;;;;;;;1.77;1.00;;;15.90;99.90;;;;;;4998911;28;20045;-74
2022/07/07 02:20:39;;;;;;;1.05;0.95;;;15.80;99.90;;;;;;4982472;28;20045;-74
2022/07/07 02:23:05;;;;;;;3.42;1.05;;;15.80;99.90;;;;;;4998885;28;20064;-74
2022/07/07 02:25:30;;;;;;;1.70;0.98;;;15.90;99.90;;;;;;4982821;28;20130;-73
2022/07/07 02:27:56;;;;;;;1.35;1.20;;;15.80;99.90;;;;;;4998873;28;20045;-74
2022/07/07 02:30:22;;;;;;;1.38;0.93;;;15.80;99.90;;;;;;4998936;28;20179;-74
2022/07/07 02:32:47;;;;;;;2.38;1.00;;;15.80;99.90;;;;;;5015084;28;20158;-74
2022/07/07 02:35:13;;;;;;;1.20;1.10;;;15.80;99.90;;;;;;4982637;28;20507;-74
2022/07/07 02:37:39;;;;;;;1.02;1.00;;;15.80;99.90;;;;;;4982599;28;20403;-74
2022/07/07 02:40:05;;;;;;;2.65;1.30;;;15.80;99.90;;;;;;4982489;28;20045;-74
2022/07/07 02:42:31;;;;;;;1.90;1.08;;;15.90;99.90;;;;;;4998815;28;20037;-74
2022/07/07 02:44:57;;;;;;;3.35;1.23;;;15.80;99.90;;;;;;4998628;28;20139;-73
2022/07/07 02:47:22;;;;;;;2.22;1.13;;;15.80;99.90;;;;;;4998950;28;20099;-74
2022/07/07 02:49:48;;;;;;;1.58;0.98;;;15.80;99.90;;;;;;5014982;28;20051;-73
2022/07/07 02:52:14;;;;;;;1.80;1.02;;;15.80;99.90;;;;;;4982317;28;20041;-73
2022/07/07 02:54:42;;;;;;;4.75;1.27;;;15.80;99.90;;;;;;4998664;28;20099;-73
2022/07/07 02:57:08;;;;;;;4.80;1.50;;;15.80;99.90;;;;;;5015058;28;20088;-73
2022/07/07 02:59:34;;;;;;;4.10;0.82;;;15.80;99.90;;;;;;4998933;28;20042;-73
2022/07/07 03:02:00;;;;;;;2.55;1.20;;;15.80;99.90;;;;;;4998793;28;20034;-73
2022/07/07 03:04:25;;;;;;;2.22;1.17;;;15.80;99.90;;;;;;4998547;28;20480;-73
2022/07/07 03:06:51;;;;;;;2.85;1.25;;;15.80;99.90;;;;;;5014844;28;20041;-73
2022/07/07 03:09:16;;;;;;;1.88;1.20;;;15.80;99.90;;;;;;4982662;28;20064;-73
2022/07/07 03:11:42;;;;;;;2.28;1.05;;;15.80;99.90;;;;;;4982287;28;20064;-73
2022/07/07 03:14:08;;;;;;;1.13;0.98;;;16.10;99.90;;;;;;4982265;28;20049;-73
2022/07/07 03:16:33;;;;;;;2.45;0.93;;;15.80;99.90;;;;;;5014932;28;20042;-73
2022/07/07 03:18:59;;;;;;;1.27;1.05;;;15.80;99.90;;;;;;5014753;28;20049;-73
2022/07/07 03:21:25;;;;;;;1.38;0.90;;;15.90;99.90;;;;;;4998581;28;20045;-73
2022/07/07 03:23:50;;;;;;;2.13;1.17;;;16.10;99.90;;;;;;4998640;28;20045;-73
2022/07/07 03:26:16;;;;;;;3.45;1.30;;;15.80;99.90;;;;;;5014710;28;20037;-73
2022/07/07 03:28:42;;;;;;;1.08;0.88;;;15.80;99.90;;;;;;5014812;28;20034;-73
2022/07/07 03:31:07;;;;;;;2.45;1.00;;;15.80;99.90;;;;;;4998489;28;20155;-73
2022/07/07 03:33:33;;;;;;;2.17;0.90;;;15.80;99.90;;;;;;5016903;28;20045;-73
2022/07/07 03:35:59;;;;;;;1.42;0.95;;;15.80;99.90;;;;;;5002170;28;20045;-73
2022/07/07 03:38:24;;;;;;;2.85;0.98;;;15.80;99.90;;;;;;5001899;28;20114;-73
2022/07/07 03:40:50;;;;;;;2.58;1.13;;;15.80;99.90;;;;;;5018197;28;20077;-73
2022/07/07 03:43:16;;;;;;;1.35;0.90;;;15.80;99.90;;;;;;4985588;28;20041;-73
2022/07/07 03:45:41;;;;;;;3.72;1.00;;;15.80;99.90;;;;;;4985585;28;20060;-73
2022/07/07 03:48:08;;;;;;;2.33;0.95;;;15.80;99.90;;;;;;5018008;28;20041;-73
2022/07/07 03:50:33;;;;;;;2.17;0.90;;;15.80;99.90;;;;;;4969721;28;20485;-74
2022/07/07 03:52:59;;;;;;;3.08;1.23;;;15.70;99.90;;;;;;5018235;28;20041;-73
2022/07/07 03:55:24;;;;;;;1.52;0.90;;;15.70;99.90;;;;;;5018230;28;20132;-74
2022/07/07 03:57:50;;;;;;;0.70;0.70;;;15.70;99.90;;;;;;5001507;28;20042;-73
2022/07/07 04:00:16;;;;;;;1.08;0.65;;;15.70;99.90;;;;;;5018433;28;20048;-74
2022/07/07 04:02:42;;;;;;;2.22;0.60;;;15.70;99.90;;;;;;5017787;28;20033;-73
2022/07/07 04:05:08;;;;;;;2.00;0.88;;;15.70;99.90;;;;;;5001334;28;20060;-73
2022/07/07 04:07:33;;;;;;;0.80;0.80;;;15.60;99.90;;;;;;5017795;28;20083;-73
2022/07/07 04:10:01;;;;;;;5.15;0.98;;;15.60;99.90;;;;;;5017564;28;20524;-73
2022/07/07 04:12:27;;;;;;;2.50;0.60;;;15.50;99.90;;;;;;5001168;28;20053;-74
2022/07/07 04:14:53;;;;;;;2.20;0.55;;;15.50;99.90;;;;;;5001432;28;20041;-73
2022/07/07 04:17:18;;;;;;;1.48;0.70;;;15.50;99.90;;;;;;5001188;28;20034;-73
2022/07/07 04:19:44;;;;;;;0.73;0.47;;;15.50;99.90;;;;;;5017430;28;20041;-73
2022/07/07 04:22:09;;;;;;;0.90;0.57;;;15.50;99.90;;;;;;5001121;28;20128;-73
2022/07/07 04:24:35;;;;;;;1.00;0.60;;;15.40;99.90;;;;;;5001121;28;20104;-73
2022/07/07 04:27:01;;;;;;;0.38;0.30;;;15.40;99.90;;;;;;5017370;28;20489;-73
2022/07/07 04:29:27;;;;;;;1.27;0.60;;;15.40;99.90;;;;;;5001197;28;20045;-73
2022/07/07 04:31:52;;;;;;;0.40;0.40;;;15.30;99.90;;;;;;5017152;28;20128;-73
2022/07/07 04:34:18;;;;;;;0.40;0.40;;;15.30;99.90;;;;;;5000919;28;20135;-73
2022/07/07 04:36:44;;;;;;;5.05;0.50;;;15.30;99.90;;;;;;5017314;28;20043;-73
2022/07/07 04:39:10;;;;;;;0.80;0.55;;;15.20;99.90;;;;;;5001229;28;20029;-73
2022/07/07 04:41:36;;;;;;;2.92;0.45;;;12.70;99.90;;;;;;5017292;28;20045;-73
2022/07/07 04:44:02;;;;;;;5.57;0.60;;;15.00;99.90;;;;;;4999939;28;20044;-73
2022/07/07 04:46:27;;;;;;;1.58;0.60;;;15.10;99.90;;;;;;4968407;28;20041;-73
2022/07/07 04:48:53;;;;;;;2.17;1.05;;;15.10;99.90;;;;;;5000579;28;20073;-73
2022/07/07 04:51:18;;;;;;;3.00;0.57;;;15.10;99.90;;;;;;5000542;28;20037;-73
2022/07/07 04:53:44;;;;;;;0.65;0.40;;;15.10;99.90;;;;;;5000617;28;20447;-73
2022/07/07 04:56:10;;;;;;;1.50;0.50;;;15.10;99.90;;;;;;5016788;28;20047;-73
2022/07/07 04:58:35;;;;;;;0.75;0.52;;;15.10;99.90;;;;;;5016598;28;20073;-73
2022/07/07 05:01:01;;;;;;;1.95;0.40;;;15.00;99.90;;;;;;5000436;28;20083;-73
2022/07/07 05:03:27;;;;;;;1.45;0.68;;;15.10;99.90;;;;;;5000454;28;20171;-73
2022/07/07 05:05:53;;;;;;;1.27;0.55;;;15.10;99.90;;;;;;5000319;28;20116;-73
2022/07/07 05:08:18;;;;;;;1.15;0.57;;;15.10;99.90;;;;;;5016749;28;20117;-73
2022/07/07 05:10:44;;;;;;;3.83;0.75;;;15.20;99.90;;;;;;5000064;28;20081;-73
2022/07/07 05:13:10;;;;;;;2.00;0.75;;;15.10;99.90;;;;;;4984189;28;20052;-73
2022/07/07 05:15:35;;;;;;;1.40;0.57;;;15.10;99.90;;;;;;4983954;28;20042;-73
2022/07/07 05:18:01;;;;;;;1.45;0.60;;;15.20;99.90;;;;;;4983740;28;20099;-73
2022/07/07 05:20:27;;;;;;;1.45;0.75;;;15.10;99.90;;;;;;5000284;28;20033;-72
2022/07/07 05:22:53;;;;;;;0.47;0.47;;;15.10;99.90;;;;;;5016219;28;20040;-73
2022/07/07 05:25:18;;;;;;;1.13;0.65;;;15.00;99.90;;;;;;5016226;28;20130;-72
2022/07/07 05:27:44;;;;;;;3.08;0.68;;;15.10;99.90;;;;;;5016223;28;20107;-72
2022/07/07 05:30:12;;;;;;;0.77;0.50;;;15.10;99.90;;;;;;5016156;28;20129;-71
2022/07/07 05:32:37;;;;;;;1.02;0.55;;;15.20;99.90;;;;;;5016662;28;20128;-73
2022/07/07 05:35:03;;;;;;;3.50;0.77;;;15.30;99.90;;;;;;4999980;28;20077;-72
2022/07/07 05:37:29;;;;;;;1.25;0.43;;;15.30;99.90;;;;;;5000028;28;20124;-74
2022/07/07 05:39:55;;;;;;;0.50;0.50;;;15.30;99.90;;;;;;5016371;28;20136;-73
2022/07/07 05:42:21;;;;;;;0.88;0.52;;;15.30;99.90;;;;;;4984178;28;20037;-72
2022/07/07 05:44:46;;;;;;;0.68;0.47;;;15.30;99.90;;;;;;4999901;28;20104;-71
2022/07/07 05:47:12;;;;;;;1.40;0.60;;;15.30;99.90;;;;;;4984342;28;20505;-72
2022/07/07 05:49:38;;;;;;;1.83;0.55;;;15.30;99.90;;;;;;5034821;28;20562;-72
2022/07/07 05:52:04;;;;;;;0.73;0.50;;;15.30;99.90;;;;;;5017098;28;20070;-72
2022/07/07 05:54:30;;;;;;;4.28;0.60;;;15.30;99.90;;;;;;5018489;28;20128;-73
2022/07/07 05:56:56;;;;;;;2.17;0.50;;;15.30;99.90;;;;;;4985065;28;20077;-83
2022/07/07 05:59:21;;;;;;;4.70;0.52;;;15.30;99.90;;;;;;5000727;28;20037;-73
2022/07/07 06:01:47;;;;;;;2.47;0.68;;;15.30;99.90;;;;;;5016105;28;20038;-74
2022/07/07 06:04:13;;;;;;;1.00;0.57;;;15.20;99.90;;;;;;5015559;28;20041;-73
2022/07/07 06:06:38;;;;;;;1.15;0.52;;;15.20;99.90;;;;;;4983213;28;20049;-72
2022/07/07 06:09:04;;;;;;;1.42;0.60;;;15.20;99.90;;;;;;4999349;28;20412;-75
2022/07/07 06:11:30;;;;;;;1.33;0.55;;;15.20;99.90;;;;;;5015363;28;20061;-72
2022/07/07 06:13:55;;;;;;;0.95;0.65;;;15.10;99.90;;;;;;4999228;28;20045;-71
2022/07/07 06:16:38;;;;;;;3.90;0.85;;;15.20;99.90;;;;;;5015886;28;20045;-73
2022/07/07 06:19:13;;;;;;;2.38;0.63;;;15.10;99.90;;;;;;4985386;28;20080;-76
2022/07/07 06:21:41;;;;;;;1.20;0.65;;;15.20;99.90;;;;;;5015444;28;20056;-73
2022/07/07 06:24:07;;;;;;;5.05;1.13;;;15.20;99.90;;;;;;4999074;28;20037;-74
2022/07/07 06:26:33;;;;;;;3.67;1.15;;;15.20;99.90;;;;;;5015181;28;20037;-72
2022/07/07 06:28:59;;;;;;;2.10;0.68;;;15.30;99.90;;;;;;5015071;28;20108;-72
2022/07/07 06:31:24;;;;;;;0.90;0.63;;;15.30;99.90;;;;;;4982522;28;20517;-73
2022/07/07 06:33:50;;;;;;;0.60;0.50;;;15.40;99.90;;;;;;4998992;28;20030;-73
2022/07/07 06:36:16;;;;;;;1.23;0.55;;;15.40;99.90;;;;;;4998730;28;20041;-73
2022/07/07 06:38:42;;;;;;;2.08;0.82;;;15.40;99.90;;;;;;4998530;28;20101;-73
2022/07/07 06:41:08;;;;;;;1.45;0.57;;;15.60;99.90;;;;;;4998890;28;20095;-78
2022/07/07 06:43:33;;;;;;;2.72;0.65;;;15.80;99.90;;;;;;4982457;28;20037;-74
2022/07/07 06:45:59;;;;;;;0.85;0.45;;;16.00;99.90;;;;;;5014918;28;20116;-74
2022/07/07 06:48:25;;;;;;;3.25;0.70;;;16.20;99.90;;;;;;5014925;28;20065;-74
2022/07/07 06:50:50;;;;;;;2.30;0.50;;;16.40;99.90;;;;;;4982632;28;20072;-74
2022/07/07 06:53:16;;;;;;;2.42;0.80;;;16.70;99.90;;;;;;4998808;28;20064;-73
2022/07/07 06:55:42;;;;;;;0.68;0.45;;;16.80;99.90;;;;;;5014860;28;20048;-73
2022/07/07 06:58:08;;;;;;;1.67;0.80;;;16.80;99.90;;;;;;4998405;28;20056;-73
2022/07/07 07:00:34;;;;;;;2.78;0.70;;;16.80;99.90;;;;;;5014803;28;20045;-73
2022/07/07 07:03:00;;;;;;;3.20;0.85;;;16.80;99.90;;;;;;5014708;28;20095;-73
2022/07/07 07:05:26;;;;;;;0.40;0.38;;;16.70;99.90;;;;;;5014817;28;20096;-72
2022/07/07 07:07:52;;;;;;;1.13;0.50;;;16.70;99.90;;;;;;5016535;28;20128;-73
2022/07/07 07:10:18;;;;;;;2.25;0.57;;;16.60;99.90;;;;;;5002321;28;20061;-73
2022/07/07 07:12:44;;;;;;;3.47;0.70;;;16.60;99.90;;;;;;5002127;28;20531;-73
2022/07/07 07:15:10;;;;;;;2.33;0.50;;;16.50;99.90;;;;;;5018557;28;20052;-73
2022/07/07 07:17:37;;;;;;;1.00;0.50;;;16.40;99.90;;;;;;5002299;28;20042;-73
2022/07/07 07:20:04;;;;;;;1.08;0.57;;;16.50;99.90;;;;;;5002698;28;20485;-73
2022/07/07 07:22:38;;;;;;;4.00;0.50;;;16.60;99.90;;;;;;5002311;28;20489;-73
2022/07/07 07:25:04;;;;;;;0.93;0.35;;;16.60;99.90;;;;;;5002183;28;20033;-73
2022/07/07 07:27:30;;;;;;;0.50;0.40;;;16.50;99.90;;;;;;5018387;28;20084;-73
2022/07/07 07:29:55;;;;;;;0.70;0.30;;;16.40;99.90;;;;;;5002399;28;20441;-73
2022/07/07 07:32:21;;;;;;;0.85;0.30;;;16.30;99.90;;;;;;5018306;28;20098;-73
2022/07/07 07:34:47;;;;;;;0.45;0.32;;;16.30;99.90;;;;;;5018505;28;20408;-73
2022/07/07 07:37:12;;;;;;;0.20;0.20;;;16.40;99.90;;;;;;5018102;28;20041;-73
2022/07/07 07:39:38;;;;;;;2.55;0.68;;;16.50;99.90;;;;;;5018211;28;20048;-73
2022/07/07 07:42:04;;;;;;;2.15;0.40;;;16.60;99.90;;;;;;5002090;28;20033;-73
2022/07/07 07:47:14;;;;;;;0.68;0.30;;;16.70;99.90;;;;;;5004488;28;20599;-73
2022/07/07 07:49:39;;;;;;;0.30;0.30;;;16.80;99.90;;;;;;5018064;28;20124;-73
2022/07/07 07:52:05;;;;;;;0.20;0.20;;;17.00;99.90;;;;;;4985680;28;20095;-73
2022/07/07 07:54:31;;;;;;;0.40;0.40;;;17.40;99.90;;;;;;5018033;28;20042;-73
2022/07/07 07:56:57;;;;;;;0.50;0.32;;;17.60;99.90;;;;;;5017891;28;20052;-73
2022/07/07 07:59:23;;;;;;;1.25;0.30;;;17.80;99.90;;;;;;5017889;28;20038;-73
2022/07/07 08:01:48;;;;;;;0.35;0.30;;;18.00;99.90;;;;;;5017821;28;20100;-73
2022/07/07 08:04:14;;;;;;;0.45;0.20;;;18.20;99.90;;;;;;5001847;28;20034;-74
2022/07/07 08:06:42;;;;;;;0.32;0.30;;;18.50;99.90;;;;;;5017822;28;20057;-74
2022/07/07 08:09:08;;;;;;;0.20;0.20;;;18.20;99.90;;;;;;5002057;28;20056;-74
2022/07/07 08:11:34;;;;;;;0.88;0.30;;;18.00;99.90;;;;;;5017520;28;20437;-74
2022/07/07 08:13:59;;;;;;;0.57;0.30;;;17.80;99.90;;;;;;4985393;28;20053;-73
2022/07/07 08:16:25;;;;;;;1.45;0.40;;;17.50;99.90;;;;;;5001488;28;20435;-74
2022/07/07 08:18:51;;;;;;;0.82;0.50;;;17.20;99.90;;;;;;5000207;28;20040;-72
2022/07/07 08:21:18;;;;;;;0.20;0.20;;;16.90;99.90;;;;;;5017288;28;20475;-74
2022/07/07 08:23:45;;;;;;;0.90;0.52;;;16.80;99.90;;;;;;5001102;28;20124;-73
2022/07/07 08:26:11;;;;;;;1.27;0.55;;;16.70;99.90;;;;;;5017317;28;20046;-73
2022/07/07 08:28:38;;;;;;;1.17;0.43;;;16.70;99.90;;;;;;5017506;28;20042;-75
2022/07/07 08:31:06;;;;;;;0.45;0.30;;;16.80;99.90;;;;;;5001289;28;20101;-74
2022/07/07 08:33:32;;;;;;;2.80;0.30;;;17.00;99.90;;;;;;5000979;28;20099;-77
2022/07/07 08:35:59;;;;;;;0.30;0.30;;;17.10;99.90;;;;;;5017471;28;20056;-82
2022/07/07 08:38:25;;;;;;;0.20;0.20;;;17.30;99.90;;;;;;5000854;28;20033;-73
2022/07/07 08:40:51;;;;;;;2.50;0.30;;;17.30;99.90;;;;;;5001075;28;20045;-74
2022/07/07 08:43:18;;;;;;;1.70;0.30;;;17.20;99.90;;;;;;5016961;28;20063;-73
2022/07/07 08:45:45;;;;;;;0.32;0.30;;;17.20;99.90;;;;;;5000999;28;20412;-74
2022/07/07 08:48:11;;;;;;;0.30;0.30;;;17.30;99.90;;;;;;5000986;28;20392;-73
2022/07/07 08:50:38;;;;;;;1.60;0.40;;;17.30;99.90;;;;;;5017000;28;20193;-74
2022/07/07 08:53:06;;;;;;;1.48;0.43;;;17.40;99.90;;;;;;5016842;28;20073;-76
2022/07/07 08:55:34;;;;;;;2.38;0.50;;;17.50;99.90;;;;;;5016870;28;20115;-74
2022/07/07 08:58:00;;;;;;;4.32;0.60;;;17.60;99.90;;;;;;5016798;28;20501;-74
2022/07/07 09:00:26;;;;;;;0.40;0.35;;;17.60;99.90;;;;;;5000820;28;20037;-73
2022/07/07 09:02:58;;;;;;;0.80;0.30;;;17.60;99.90;;;;;;5016635;28;20049;-73
2022/07/07 09:05:25;;;;;;;1.67;0.57;;;17.60;99.90;;;;;;5016700;28;20124;-73
2022/07/07 09:07:52;;;;;;;0.38;0.30;;;17.60;99.90;;;;;;5016684;28;20045;-73
2022/07/07 09:10:37;;;;;;;0.70;0.47;;;17.60;99.90;;;;;;5016495;28;20045;-73
2022/07/07 09:13:29;;;;;;;0.68;0.40;;;17.70;99.90;;;;;;5016379;28;20097;-73
2022/07/07 09:15:57;;;;;;;0.85;0.55;;;17.80;99.90;;;;;;5016718;28;20393;-73
2022/07/07 09:18:35;;;;;;;0.40;0.30;;;17.70;99.90;;;;;;5016354;28;20049;-73
2022/07/07 09:21:03;;;;;;;2.00;0.43;;;17.70;99.90;;;;;;5016389;28;20037;-73
2022/07/07 09:23:29;;;;;;;1.52;0.47;;;17.70;99.90;;;;;;5016567;28;20497;-73
2022/07/07 09:25:55;;;;;;;0.70;0.40;;;17.90;99.90;;;;;;5016198;28;20038;-73
2022/07/07 09:28:21;;;;;;;0.88;0.50;;;18.10;99.90;;;;;;5016424;28;20132;-73
2022/07/07 09:30:48;;;;;;;4.53;0.65;;;18.10;99.90;;;;;;5016158;28;20077;-73
2022/07/07 09:33:22;;;;;;;1.00;0.52;;;18.00;99.90;;;;;;4984616;28;20043;-73
2022/07/07 09:38:35;;;;;;;2.55;0.63;;;17.70;99.90;;;;;;5016070;28;20489;-73
2022/07/07 09:41:05;;;;;;;1.83;0.40;;;17.60;99.90;;;;;;5033737;28;20043;-73
2022/07/07 09:43:33;;;;;;;0.68;0.40;;;17.40;99.90;;;;;;4999634;28;20041;-73
2022/07/07 09:46:10;;;;;;;0.93;0.40;;;17.40;99.90;;;;;;5015918;28;20467;-73
2022/07/07 09:48:37;;;;;;;2.13;0.50;;;17.50;99.90;;;;;;5015986;28;20080;-73
2022/07/07 09:51:11;;;;;;;1.35;0.50;;;17.70;99.90;;;;;;4983520;28;20041;-73
2022/07/07 09:54:11;;;;;;;1.88;0.60;;;17.60;99.90;;;;;;4999451;28;20144;-73
2022/07/07 09:56:47;;;;;;;0.53;0.30;;;17.60;99.90;;;;;;5016006;28;20404;-73
2022/07/07 09:59:15;;;;;;;0.85;0.30;;;17.70;99.90;;;;;;5015762;28;20033;-73
2022/07/07 10:01:43;;;;;;;0.40;0.30;;;17.90;99.90;;;;;;4983390;28;20569;-73
2022/07/07 10:04:11;;;;;;;0.85;0.60;;;18.00;99.90;;;;;;5015864;28;20083;-73
2022/07/07 10:06:39;;;;;;;0.30;0.22;;;18.20;99.90;;;;;;5015798;28;20048;-73
2022/07/07 10:09:06;;;;;;;1.30;0.45;;;18.30;99.90;;;;;;5015430;28;20045;-73
2022/07/07 10:11:36;;;;;;;0.75;0.35;;;18.30;99.90;;;;;;4998985;28;20057;-73
2022/07/07 10:14:08;;;;;;;1.35;0.30;;;18.00;99.90;;;;;;5015752;28;20103;-73
2022/07/07 10:16:35;;;;;;;0.55;0.52;;;17.60;99.90;;;;;;5015399;28;20038;-73
2022/07/07 10:19:01;;;;;;;0.55;0.30;;;17.30;99.90;;;;;;4999202;28;20052;-73
2022/07/07 10:21:27;;;;;;;0.50;0.30;;;17.30;99.90;;;;;;4982867;28;20125;-72
2022/07/07 10:23:53;;;;;;;0.93;0.40;;;17.30;99.90;;;;;;5015332;28;20116;-73
2022/07/07 10:26:42;;;;;;;0.38;0.28;;;17.30;99.90;;;;;;4999282;28;20568;-74
2022/07/07 10:29:10;;;;;;;0.52;0.32;;;17.40;99.90;;;;;;5015272;28;20041;-72
2022/07/07 10:31:38;;;;;;;0.38;0.38;;;17.50;99.90;;;;;;5015187;28;20083;-71
2022/07/07 10:34:09;;;;;;;0.73;0.30;;;17.60;99.90;;;;;;5015507;28;20045;-73
2022/07/07 10:36:49;;;;;;;1.48;0.28;;;17.80;99.90;;;;;;5032779;28;20064;-72
2022/07/07 10:39:22;;;;;;;0.55;0.35;;;17.90;99.90;;;;;;4999080;28;20041;-72
2022/07/07 10:42:12;;;;;;;2.10;0.50;;;17.80;99.90;;;;;;4998427;28;20495;-72
2022/07/07 10:44:39;;;;;;;0.82;0.43;;;17.70;99.90;;;;;;5015088;28;20037;-72
2022/07/07 10:47:24;;;;;;;0.32;0.20;;;17.60;99.90;;;;;;4982720;28;20050;-71
2022/07/07 10:49:54;;;;;;;0.82;0.40;;;17.60;99.90;;;;;;5015193;28;20045;-72
2022/07/07 10:52:23;;;;;;;1.17;0.40;;;17.60;99.90;;;;;;5015016;28;20045;-72
2022/07/07 10:55:02;;;;;;;0.73;0.50;;;17.50;99.90;;;;;;5015177;28;20136;-73
2022/07/07 10:57:43;;;;;;;1.73;0.50;;;17.40;99.90;;;;;;5014875;28;20128;-78
2022/07/07 11:00:11;;;;;;;1.50;0.47;;;17.20;99.90;;;;;;4999145;28;20481;-71
2022/07/07 11:02:39;;;;;;;2.25;0.60;;;17.10;99.90;;;;;;4998671;28;20096;-72
2022/07/07 11:05:13;;;;;;;2.33;0.70;;;17.00;99.90;;;;;;5015120;28;20038;-73
2022/07/07 11:08:02;;;;;;;2.97;0.60;;;17.00;99.90;;;;;;5014807;28;20045;-73
2022/07/07 11:10:47;;;;;;;2.85;0.82;;;17.00;99.90;;;;;;5015151;28;20489;-73
2022/07/07 11:13:21;;;;;;;3.13;0.63;;;17.10;99.90;;;;;;5014934;28;20085;-73
2022/07/07 11:16:09;;;;;;;4.30;0.88;;;17.40;99.90;;;;;;5014725;28;20045;-73
2022/07/07 11:18:35;;;;;;;1.65;0.65;;;17.50;99.90;;;;;;4998435;28;20100;-73
2022/07/07 11:21:04;;;;;;;1.88;0.68;;;17.40;99.90;;;;;;4998679;28;20489;-73
2022/07/07 11:23:50;;;;;;;4.65;0.85;;;17.30;99.90;;;;;;5014740;28;20041;-73
2022/07/07 11:26:24;;;;;;;2.85;0.80;;;17.20;99.90;;;;;;4998370;28;20133;-73
2022/07/07 11:28:51;;;;;;;5.82;1.10;;;17.30;99.90;;;;;;5014793;28;20124;-73
2022/07/07 11:31:17;;;;;;;3.00;0.60;;;17.30;99.90;;;;;;5014683;28;20056;-73
2022/07/07 11:33:52;;;;;;;1.25;0.60;;;17.40;99.90;;;;;;5014831;28;20041;-73
2022/07/07 11:36:26;;;;;;;2.00;0.55;;;17.40;99.90;;;;;;4998578;28;20484;-73
2022/07/07 11:39:00;;;;;;;8.88;0.73;;;17.40;99.90;;;;;;5014591;28;20037;-73
2022/07/07 11:41:44;;;;;;;6.97;0.80;;;17.40;99.90;;;;;;4998430;28;20492;-72
2022/07/07 11:44:23;;;;;;;2.88;0.40;;;17.30;99.90;;;;;;5014860;28;20042;-73
2022/07/07 11:46:52;;;;;;;2.65;0.68;;;17.30;99.90;;;;;;4998206;28;20095;-73
2022/07/07 11:49:20;;;;;;;1.27;0.57;;;17.30;99.90;;;;;;5014507;28;20057;-73
2022/07/07 11:51:46;;;;;;;1.67;0.50;;;17.30;99.90;;;;;;5014779;28;20049;-73
2022/07/07 11:54:12;;;;;;;2.17;0.77;;;17.40;99.90;;;;;;5016508;28;20544;-73
2022/07/07 11:56:38;;;;;;;2.42;1.00;;;17.30;99.90;;;;;;5035614;28;20049;-72
2022/07/07 11:59:07;;;;;;;2.92;0.63;;;17.30;99.90;;;;;;5001637;28;20095;-73
2022/07/07 12:01:37;;;;;;;0.82;0.50;;;17.30;99.90;;;;;;5018110;28;20052;-72
2022/07/07 12:04:14;;;;;;;1.65;0.70;;;17.60;99.90;;;;;;5017819;28;20103;-72
2022/07/07 12:06:40;;;;;;;3.88;0.88;;;17.80;99.90;;;;;;5017777;28;20034;-73
2022/07/07 12:09:06;;;;;;;5.50;0.85;;;17.90;99.90;;;;;;5001478;28;20064;-72
2022/07/07 12:11:37;;;;;;;1.20;0.30;;;18.00;99.90;;;;;;4984981;28;20136;-72
2022/07/07 12:14:03;;;;;;;0.98;0.50;;;18.00;99.90;;;;;;5001292;28;20045;-72
2022/07/07 12:16:43;;;;;;;1.52;0.55;;;18.10;99.90;;;;;;5001142;28;20382;-72
2022/07/07 12:19:09;;;;;;;1.70;0.57;;;18.30;99.90;;;;;;5017525;28;20495;-73
2022/07/07 12:21:42;;;;;;;4.40;0.75;;;18.40;99.90;;;;;;5017504;28;20320;-73
2022/07/07 12:24:11;;;;;;;0.75;0.50;;;18.30;99.90;;;;;;5001201;28;20050;-73
2022/07/07 12:26:48;;;;;;;1.13;0.52;;;18.30;99.90;;;;;;5001293;28;20519;-73
2022/07/07 12:29:16;;;;;;;1.08;0.50;;;18.40;99.90;;;;;;4985228;28;20034;-73
2022/07/07 12:31:42;;;;;;;1.90;0.70;;;18.40;99.90;;;;;;5017596;28;20104;-72
2022/07/07 12:34:16;;;;;;;2.67;0.80;;;18.50;99.90;;;;;;5001063;28;20038;-73
2022/07/07 12:36:43;;;;;;;2.42;0.68;;;18.60;99.90;;;;;;5001126;28;20033;-73
2022/07/07 12:39:09;;;;;;;2.65;0.50;;;18.40;99.90;;;;;;5000756;28;20048;-73
2022/07/07 12:41:39;;;;;;;2.55;0.68;;;18.30;99.90;;;;;;5017398;28;20128;-73
2022/07/07 12:44:21;;;;;;;2.53;0.50;;;18.10;99.90;;;;;;5017387;28;20408;-73
2022/07/07 12:46:47;;;;;;;5.05;0.70;;;17.90;99.90;;;;;;5016847;28;20043;-74
2022/07/07 12:49:13;;;;;;;0.70;0.50;;;17.70;99.90;;;;;;4984546;28;20038;-73
2022/07/07 12:51:42;;;;;;;3.13;0.60;;;17.60;99.90;;;;;;5016970;28;20056;-73
2022/07/07 12:54:20;;;;;;;4.13;0.82;;;17.70;99.90;;;;;;5000859;28;20042;-76
2022/07/07 12:56:45;;;;;;;3.03;0.93;;;17.70;99.90;;;;;;5016954;28;20072;-73
2022/07/07 12:59:21;;;;;;;6.25;1.08;;;17.80;99.90;;;;;;5017061;28;20072;-73
2022/07/07 13:01:51;;;;;;;1.48;0.70;;;17.80;99.90;;;;;;5016702;28;20049;-73